sensor_id;sensor_type;location;lat;lon;timestamp;temperature;humidity
4505;DHT22;2265;48.794;9.520;2023-05-28T00:01:50;14.30;98.00
4505;DHT22;2265;48.794;9.520;2023-05-28T00:04:18;14.00;98.00
4505;DHT22;2265;48.794;9.520;2023-05-28T00:06:46;14.00;98.00
4505;DHT22;2265;48.794;9.520;2023-05-28T00:09:14;13.90;98.00
4505;DHT22;2265;48.794;9.520;2023-05-28T00:11:41;14.00;98.00
4505;DHT22;2265;48.794;9.520;2023-05-28T00:14:08;13.90;98.00
4505;DHT22;2265;48.794;9.520;2023-05-28T00:16:37;13.70;98.00
4505;DHT22;2265;48.794;9.520;2023-05-28T00:19:06;13.50;98.00
4505;DHT22;2265;48.794;9.520;2023-05-28T00:21:36;13.40;98.00
4505;DHT22;2265;48.794;9.520;2023-05-28T00:24:03;13.50;98.00
4505;DHT22;2265;48.794;9.520;2023-05-28T00:26:30;13.50;98.00
4505;DHT22;2265;48.794;9.520;2023-05-28T00:28:57;13.40;98.00
4505;DHT22;2265;48.794;9.520;2023-05-28T00:31:25;13.50;98.00
4505;DHT22;2265;48.794;9.520;2023-05-28T00:33:52;13.30;98.00
4505;DHT22;2265;48.794;9.520;2023-05-28T00:36:19;13.30;98.00
4505;DHT22;2265;48.794;9.520;2023-05-28T00:38:47;13.40;98.00
4505;DHT22;2265;48.794;9.520;2023-05-28T00:41:18;13.20;98.00
4505;DHT22;2265;48.794;9.520;2023-05-28T00:43:46;13.20;98.00
4505;DHT22;2265;48.794;9.520;2023-05-28T00:46:15;13.20;98.00
4505;DHT22;2265;48.794;9.520;2023-05-28T00:48:44;13.10;98.00
4505;DHT22;2265;48.794;9.520;2023-05-28T00:51:11;13.10;98.00
4505;DHT22;2265;48.794;9.520;2023-05-28T00:53:39;13.20;98.00
4505;DHT22;2265;48.794;9.520;2023-05-28T00:56:11;13.30;98.00
4505;DHT22;2265;48.794;9.520;2023-05-28T00:58:39;13.20;98.00
4505;DHT22;2265;48.794;9.520;2023-05-28T01:01:06;13.10;98.00
4505;DHT22;2265;48.794;9.520;2023-05-28T01:03:34;13.00;98.00
4505;DHT22;2265;48.794;9.520;2023-05-28T01:06:05;13.00;98.00
4505;DHT22;2265;48.794;9.520;2023-05-28T01:08:35;13.10;98.00
4505;DHT22;2265;48.794;9.520;2023-05-28T01:11:03;13.20;98.00
4505;DHT22;2265;48.794;9.520;2023-05-28T01:13:32;13.10;98.00
4505;DHT22;2265;48.794;9.520;2023-05-28T01:16:00;13.10;98.00
4505;DHT22;2265;48.794;9.520;2023-05-28T01:18:27;13.00;98.00
4505;DHT22;2265;48.794;9.520;2023-05-28T01:20:55;13.00;98.00
4505;DHT22;2265;48.794;9.520;2023-05-28T01:23:24;13.00;98.00
4505;DHT22;2265;48.794;9.520;2023-05-28T01:25:56;12.90;98.00
4505;DHT22;2265;48.794;9.520;2023-05-28T01:28:25;12.80;98.00
4505;DHT22;2265;48.794;9.520;2023-05-28T01:30:52;12.90;98.00
4505;DHT22;2265;48.794;9.520;2023-05-28T01:33:20;12.70;98.00
4505;DHT22;2265;48.794;9.520;2023-05-28T01:35:51;12.70;98.00
4505;DHT22;2265;48.794;9.520;2023-05-28T01:38:22;12.50;98.00
4505;DHT22;2265;48.794;9.520;2023-05-28T01:40:52;12.50;98.00
4505;DHT22;2265;48.794;9.520;2023-05-28T01:43:21;12.40;98.00
4505;DHT22;2265;48.794;9.520;2023-05-28T01:45:48;12.40;98.00
4505;DHT22;2265;48.794;9.520;2023-05-28T01:48:16;12.30;98.00
4505;DHT22;2265;48.794;9.520;2023-05-28T01:50:43;12.40;98.00
4505;DHT22;2265;48.794;9.520;2023-05-28T01:53:11;12.30;98.00
4505;DHT22;2265;48.794;9.520;2023-05-28T01:55:38;12.20;98.00
4505;DHT22;2265;48.794;9.520;2023-05-28T01:58:06;12.00;98.00
4505;DHT22;2265;48.794;9.520;2023-05-28T02:00:37;12.10;98.00
4505;DHT22;2265;48.794;9.520;2023-05-28T02:03:11;12.20;98.00
4505;DHT22;2265;48.794;9.520;2023-05-28T02:05:38;12.30;98.00
4505;DHT22;2265;48.794;9.520;2023-05-28T02:08:05;12.20;98.00
4505;DHT22;2265;48.794;9.520;2023-05-28T02:10:32;12.20;98.00
4505;DHT22;2265;48.794;9.520;2023-05-28T02:12:59;12.40;98.00
4505;DHT22;2265;48.794;9.520;2023-05-28T02:15:26;12.30;98.00
4505;DHT22;2265;48.794;9.520;2023-05-28T02:17:56;12.30;98.00
4505;DHT22;2265;48.794;9.520;2023-05-28T02:20:23;12.40;98.00
4505;DHT22;2265;48.794;9.520;2023-05-28T02:22:52;12.10;98.00
4505;DHT22;2265;48.794;9.520;2023-05-28T02:25:19;11.90;98.00
4505;DHT22;2265;48.794;9.520;2023-05-28T02:27:48;11.90;98.00
4505;DHT22;2265;48.794;9.520;2023-05-28T02:30:15;11.80;98.00
4505;DHT22;2265;48.794;9.520;2023-05-28T02:32:42;11.70;98.00
4505;DHT22;2265;48.794;9.520;2023-05-28T02:35:13;11.70;98.00
4505;DHT22;2265;48.794;9.520;2023-05-28T02:37:42;11.60;98.00
4505;DHT22;2265;48.794;9.520;2023-05-28T02:40:09;11.50;98.00
4505;DHT22;2265;48.794;9.520;2023-05-28T02:42:37;11.50;98.00
4505;DHT22;2265;48.794;9.520;2023-05-28T02:45:05;11.40;98.00
4505;DHT22;2265;48.794;9.520;2023-05-28T02:47:32;11.50;98.00
4505;DHT22;2265;48.794;9.520;2023-05-28T02:49:59;11.50;98.00
4505;DHT22;2265;48.794;9.520;2023-05-28T02:52:28;11.30;98.00
4505;DHT22;2265;48.794;9.520;2023-05-28T02:54:56;11.20;98.00
4505;DHT22;2265;48.794;9.520;2023-05-28T02:57:23;11.20;98.00
4505;DHT22;2265;48.794;9.520;2023-05-28T02:59:51;11.20;98.00
4505;DHT22;2265;48.794;9.520;2023-05-28T03:02:18;11.10;98.00
4505;DHT22;2265;48.794;9.520;2023-05-28T03:04:46;11.10;98.00
4505;DHT22;2265;48.794;9.520;2023-05-28T03:07:12;11.00;98.00
4505;DHT22;2265;48.794;9.520;2023-05-28T03:09:41;11.20;98.00
4505;DHT22;2265;48.794;9.520;2023-05-28T03:12:09;11.30;98.00
4505;DHT22;2265;48.794;9.520;2023-05-28T03:14:36;11.40;98.00
4505;DHT22;2265;48.794;9.520;2023-05-28T03:17:03;11.40;98.00
4505;DHT22;2265;48.794;9.520;2023-05-28T03:19:32;11.40;98.00
4505;DHT22;2265;48.794;9.520;2023-05-28T03:21:59;11.40;98.00
4505;DHT22;2265;48.794;9.520;2023-05-28T03:24:27;11.40;98.00
4505;DHT22;2265;48.794;9.520;2023-05-28T03:26:57;11.30;98.00
4505;DHT22;2265;48.794;9.520;2023-05-28T03:29:25;11.10;98.00
4505;DHT22;2265;48.794;9.520;2023-05-28T03:31:51;11.00;98.00
4505;DHT22;2265;48.794;9.520;2023-05-28T03:34:19;10.80;98.00
4505;DHT22;2265;48.794;9.520;2023-05-28T03:36:46;10.90;98.00
4505;DHT22;2265;48.794;9.520;2023-05-28T03:39:13;11.00;98.00
4505;DHT22;2265;48.794;9.520;2023-05-28T03:41:40;10.90;98.00
4505;DHT22;2265;48.794;9.520;2023-05-28T03:44:11;11.00;98.00
4505;DHT22;2265;48.794;9.520;2023-05-28T03:46:39;11.10;98.00
4505;DHT22;2265;48.794;9.520;2023-05-28T03:49:06;11.10;98.00
4505;DHT22;2265;48.794;9.520;2023-05-28T03:51:33;11.10;98.00
4505;DHT22;2265;48.794;9.520;2023-05-28T03:54:00;11.10;98.00
4505;DHT22;2265;48.794;9.520;2023-05-28T03:56:28;11.00;98.00
4505;DHT22;2265;48.794;9.520;2023-05-28T03:58:55;10.80;98.00
4505;DHT22;2265;48.794;9.520;2023-05-28T04:01:24;11.00;98.00
4505;DHT22;2265;48.794;9.520;2023-05-28T04:03:51;11.10;98.00
4505;DHT22;2265;48.794;9.520;2023-05-28T04:06:18;11.00;98.00
4505;DHT22;2265;48.794;9.520;2023-05-28T04:08:45;11.20;98.00
4505;DHT22;2265;48.794;9.520;2023-05-28T04:11:12;11.30;98.00
4505;DHT22;2265;48.794;9.520;2023-05-28T04:13:39;11.30;98.00
4505;DHT22;2265;48.794;9.520;2023-05-28T04:16:09;11.40;98.00
4505;DHT22;2265;48.794;9.520;2023-05-28T04:18:37;11.30;98.00
4505;DHT22;2265;48.794;9.520;2023-05-28T04:21:04;11.30;98.00
4505;DHT22;2265;48.794;9.520;2023-05-28T04:23:32;11.30;98.00
4505;DHT22;2265;48.794;9.520;2023-05-28T04:25:59;11.40;98.00
4505;DHT22;2265;48.794;9.520;2023-05-28T04:28:26;11.30;98.00
4505;DHT22;2265;48.794;9.520;2023-05-28T04:30:54;11.30;98.00
4505;DHT22;2265;48.794;9.520;2023-05-28T04:33:27;11.20;98.00
4505;DHT22;2265;48.794;9.520;2023-05-28T04:35:57;11.30;98.00
4505;DHT22;2265;48.794;9.520;2023-05-28T04:38:24;11.30;98.00
4505;DHT22;2265;48.794;9.520;2023-05-28T04:40:54;11.30;98.00
4505;DHT22;2265;48.794;9.520;2023-05-28T04:43:21;11.40;98.00
4505;DHT22;2265;48.794;9.520;2023-05-28T04:45:48;11.50;98.00
4505;DHT22;2265;48.794;9.520;2023-05-28T04:48:19;11.50;98.00
4505;DHT22;2265;48.794;9.520;2023-05-28T04:50:46;11.60;98.00
4505;DHT22;2265;48.794;9.520;2023-05-28T04:53:14;11.50;98.00
4505;DHT22;2265;48.794;9.520;2023-05-28T04:55:41;11.50;98.00
4505;DHT22;2265;48.794;9.520;2023-05-28T04:58:09;11.50;98.00
4505;DHT22;2265;48.794;9.520;2023-05-28T05:00:39;11.50;98.00
4505;DHT22;2265;48.794;9.520;2023-05-28T05:03:06;11.70;98.00
4505;DHT22;2265;48.794;9.520;2023-05-28T05:05:34;11.80;98.00
4505;DHT22;2265;48.794;9.520;2023-05-28T05:08:01;11.80;98.00
4505;DHT22;2265;48.794;9.520;2023-05-28T05:10:30;11.90;98.00
4505;DHT22;2265;48.794;9.520;2023-05-28T05:12:57;12.10;98.00
4505;DHT22;2265;48.794;9.520;2023-05-28T05:15:27;12.20;98.00
4505;DHT22;2265;48.794;9.520;2023-05-28T05:17:54;12.30;98.00
4505;DHT22;2265;48.794;9.520;2023-05-28T05:20:21;12.40;98.00
4505;DHT22;2265;48.794;9.520;2023-05-28T05:22:48;12.50;98.00
4505;DHT22;2265;48.794;9.520;2023-05-28T05:25:15;12.80;98.00
4505;DHT22;2265;48.794;9.520;2023-05-28T05:27:44;12.80;98.00
4505;DHT22;2265;48.794;9.520;2023-05-28T05:30:11;12.90;98.00
4505;DHT22;2265;48.794;9.520;2023-05-28T05:32:38;13.10;98.00
4505;DHT22;2265;48.794;9.520;2023-05-28T05:35:06;13.20;98.00
4505;DHT22;2265;48.794;9.520;2023-05-28T05:37:33;13.30;98.00
4505;DHT22;2265;48.794;9.520;2023-05-28T05:40:03;13.40;98.00
4505;DHT22;2265;48.794;9.520;2023-05-28T05:42:31;13.30;98.00
4505;DHT22;2265;48.794;9.520;2023-05-28T05:45:02;13.30;98.00
4505;DHT22;2265;48.794;9.520;2023-05-28T05:47:29;13.40;98.00
4505;DHT22;2265;48.794;9.520;2023-05-28T05:49:57;13.60;98.00
4505;DHT22;2265;48.794;9.520;2023-05-28T05:52:25;13.70;98.00
4505;DHT22;2265;48.794;9.520;2023-05-28T05:54:52;13.80;98.00
4505;DHT22;2265;48.794;9.520;2023-05-28T05:57:19;13.90;98.00
4505;DHT22;2265;48.794;9.520;2023-05-28T05:59:47;13.90;98.00
4505;DHT22;2265;48.794;9.520;2023-05-28T06:02:15;14.00;98.00
4505;DHT22;2265;48.794;9.520;2023-05-28T06:04:42;14.00;98.00
4505;DHT22;2265;48.794;9.520;2023-05-28T06:07:10;14.10;98.00
4505;DHT22;2265;48.794;9.520;2023-05-28T06:09:37;14.20;98.00
4505;DHT22;2265;48.794;9.520;2023-05-28T06:12:05;14.30;98.00
4505;DHT22;2265;48.794;9.520;2023-05-28T06:14:32;14.50;98.00
4505;DHT22;2265;48.794;9.520;2023-05-28T06:16:59;14.60;98.00
4505;DHT22;2265;48.794;9.520;2023-05-28T06:19:28;14.60;98.00
4505;DHT22;2265;48.794;9.520;2023-05-28T06:21:55;14.70;98.00
4505;DHT22;2265;48.794;9.520;2023-05-28T06:24:24;14.80;98.00
4505;DHT22;2265;48.794;9.520;2023-05-28T06:26:51;14.90;98.00
4505;DHT22;2265;48.794;9.520;2023-05-28T06:29:18;15.00;98.00
4505;DHT22;2265;48.794;9.520;2023-05-28T06:31:48;15.20;98.00
4505;DHT22;2265;48.794;9.520;2023-05-28T06:34:16;15.30;98.00
4505;DHT22;2265;48.794;9.520;2023-05-28T06:36:46;15.20;98.00
4505;DHT22;2265;48.794;9.520;2023-05-28T06:39:13;15.30;98.00
4505;DHT22;2265;48.794;9.520;2023-05-28T06:41:41;15.30;98.00
4505;DHT22;2265;48.794;9.520;2023-05-28T06:44:08;15.40;98.00
4505;DHT22;2265;48.794;9.520;2023-05-28T06:46:35;15.50;98.00
4505;DHT22;2265;48.794;9.520;2023-05-28T06:49:02;15.60;98.00
4505;DHT22;2265;48.794;9.520;2023-05-28T06:51:29;15.80;98.00
4505;DHT22;2265;48.794;9.520;2023-05-28T06:53:58;15.90;98.00
4505;DHT22;2265;48.794;9.520;2023-05-28T06:56:25;16.00;98.00
4505;DHT22;2265;48.794;9.520;2023-05-28T06:58:52;16.20;98.00
4505;DHT22;2265;48.794;9.520;2023-05-28T07:01:20;16.30;98.00
4505;DHT22;2265;48.794;9.520;2023-05-28T07:03:47;16.50;98.00
4505;DHT22;2265;48.794;9.520;2023-05-28T07:06:14;16.70;98.00
4505;DHT22;2265;48.794;9.520;2023-05-28T07:08:42;16.70;98.00
4505;DHT22;2265;48.794;9.520;2023-05-28T07:11:12;16.90;98.00
4505;DHT22;2265;48.794;9.520;2023-05-28T07:13:40;16.90;98.00
4505;DHT22;2265;48.794;9.520;2023-05-28T07:16:07;17.10;98.00
4505;DHT22;2265;48.794;9.520;2023-05-28T07:18:34;17.10;98.00
4505;DHT22;2265;48.794;9.520;2023-05-28T07:21:01;17.30;98.00
4505;DHT22;2265;48.794;9.520;2023-05-28T07:23:28;17.40;98.00
4505;DHT22;2265;48.794;9.520;2023-05-28T07:25:55;17.50;98.00
4505;DHT22;2265;48.794;9.520;2023-05-28T07:28:24;17.80;98.00
4505;DHT22;2265;48.794;9.520;2023-05-28T07:30:51;17.90;98.00
4505;DHT22;2265;48.794;9.520;2023-05-28T07:33:18;18.10;98.00
4505;DHT22;2265;48.794;9.520;2023-05-28T07:35:46;18.20;98.00
4505;DHT22;2265;48.794;9.520;2023-05-28T07:38:13;18.30;98.00
4505;DHT22;2265;48.794;9.520;2023-05-28T07:40:41;18.40;98.00
4505;DHT22;2265;48.794;9.520;2023-05-28T07:43:08;18.50;98.00
4505;DHT22;2265;48.794;9.520;2023-05-28T07:45:36;18.50;98.00
4505;DHT22;2265;48.794;9.520;2023-05-28T07:48:03;18.70;98.00
4505;DHT22;2265;48.794;9.520;2023-05-28T07:50:30;18.80;98.00
4505;DHT22;2265;48.794;9.520;2023-05-28T07:52:57;19.00;98.00
4505;DHT22;2265;48.794;9.520;2023-05-28T07:55:24;19.00;98.00
4505;DHT22;2265;48.794;9.520;2023-05-28T07:57:51;19.20;98.00
4505;DHT22;2265;48.794;9.520;2023-05-28T08:00:19;19.20;98.00
4505;DHT22;2265;48.794;9.520;2023-05-28T08:02:47;19.30;98.00
4505;DHT22;2265;48.794;9.520;2023-05-28T08:05:14;19.30;98.00
4505;DHT22;2265;48.794;9.520;2023-05-28T08:07:42;19.50;98.00
4505;DHT22;2265;48.794;9.520;2023-05-28T08:10:09;19.60;97.20
4505;DHT22;2265;48.794;9.520;2023-05-28T08:12:36;19.80;98.00
4505;DHT22;2265;48.794;9.520;2023-05-28T08:15:05;20.00;98.00
4505;DHT22;2265;48.794;9.520;2023-05-28T08:17:32;20.10;98.00
4505;DHT22;2265;48.794;9.520;2023-05-28T08:20:01;20.30;97.00
4505;DHT22;2265;48.794;9.520;2023-05-28T08:22:28;20.30;98.00
4505;DHT22;2265;48.794;9.520;2023-05-28T08:24:55;20.50;95.90
4505;DHT22;2265;48.794;9.520;2023-05-28T08:27:23;20.50;95.30
4505;DHT22;2265;48.794;9.520;2023-05-28T08:29:50;20.70;95.90
4505;DHT22;2265;48.794;9.520;2023-05-28T08:32:17;20.70;96.10
4505;DHT22;2265;48.794;9.520;2023-05-28T08:34:44;20.90;96.70
4505;DHT22;2265;48.794;9.520;2023-05-28T08:37:13;21.00;97.00
4505;DHT22;2265;48.794;9.520;2023-05-28T08:39:40;21.10;96.10
4505;DHT22;2265;48.794;9.520;2023-05-28T08:42:08;21.20;93.10
4505;DHT22;2265;48.794;9.520;2023-05-28T08:44:35;21.30;94.20
4505;DHT22;2265;48.794;9.520;2023-05-28T08:47:02;21.50;95.80
4505;DHT22;2265;48.794;9.520;2023-05-28T08:49:32;21.70;94.30
4505;DHT22;2265;48.794;9.520;2023-05-28T08:52:00;21.70;93.40
4505;DHT22;2265;48.794;9.520;2023-05-28T08:54:31;21.90;93.30
4505;DHT22;2265;48.794;9.520;2023-05-28T08:56:58;22.00;92.90
4505;DHT22;2265;48.794;9.520;2023-05-28T08:59:26;22.20;92.60
4505;DHT22;2265;48.794;9.520;2023-05-28T09:01:55;22.20;90.70
4505;DHT22;2265;48.794;9.520;2023-05-28T09:04:22;22.40;90.00
4505;DHT22;2265;48.794;9.520;2023-05-28T09:06:50;22.50;90.20
4505;DHT22;2265;48.794;9.520;2023-05-28T09:09:19;22.70;91.70
4505;DHT22;2265;48.794;9.520;2023-05-28T09:11:48;22.70;90.70
4505;DHT22;2265;48.794;9.520;2023-05-28T09:14:18;22.90;89.10
4505;DHT22;2265;48.794;9.520;2023-05-28T09:16:46;23.10;89.60
4505;DHT22;2265;48.794;9.520;2023-05-28T09:19:15;23.20;88.90
4505;DHT22;2265;48.794;9.520;2023-05-28T09:21:52;23.40;89.50
4505;DHT22;2265;48.794;9.520;2023-05-28T09:24:19;23.50;87.00
4505;DHT22;2265;48.794;9.520;2023-05-28T09:26:47;23.60;87.00
4505;DHT22;2265;48.794;9.520;2023-05-28T09:29:16;23.70;85.70
4505;DHT22;2265;48.794;9.520;2023-05-28T09:31:43;23.80;84.30
4505;DHT22;2265;48.794;9.520;2023-05-28T09:34:10;23.80;84.60
4505;DHT22;2265;48.794;9.520;2023-05-28T09:36:37;23.90;88.50
4505;DHT22;2265;48.794;9.520;2023-05-28T09:39:06;24.10;86.70
4505;DHT22;2265;48.794;9.520;2023-05-28T09:41:34;24.20;85.30
4505;DHT22;2265;48.794;9.520;2023-05-28T09:44:04;24.30;85.00
4505;DHT22;2265;48.794;9.520;2023-05-28T09:46:33;24.30;82.70
4505;DHT22;2265;48.794;9.520;2023-05-28T09:49:01;24.50;84.00
4505;DHT22;2265;48.794;9.520;2023-05-28T09:51:30;24.50;82.90
4505;DHT22;2265;48.794;9.520;2023-05-28T09:53:59;24.60;84.50
4505;DHT22;2265;48.794;9.520;2023-05-28T09:56:28;24.90;85.00
4505;DHT22;2265;48.794;9.520;2023-05-28T09:58:57;25.00;83.30
4505;DHT22;2265;48.794;9.520;2023-05-28T10:01:30;25.00;80.30
4505;DHT22;2265;48.794;9.520;2023-05-28T10:04:02;25.00;79.10
4505;DHT22;2265;48.794;9.520;2023-05-28T10:06:32;25.10;79.40
4505;DHT22;2265;48.794;9.520;2023-05-28T10:09:02;25.10;80.70
4505;DHT22;2265;48.794;9.520;2023-05-28T10:11:38;25.10;79.70
4505;DHT22;2265;48.794;9.520;2023-05-28T10:14:07;25.30;79.70
4505;DHT22;2265;48.794;9.520;2023-05-28T10:16:36;25.50;78.90
4505;DHT22;2265;48.794;9.520;2023-05-28T10:19:05;25.60;75.80
4505;DHT22;2265;48.794;9.520;2023-05-28T10:21:32;25.70;77.40
4505;DHT22;2265;48.794;9.520;2023-05-28T10:24:00;25.70;78.00
4505;DHT22;2265;48.794;9.520;2023-05-28T10:26:28;25.80;77.60
4505;DHT22;2265;48.794;9.520;2023-05-28T10:28:56;25.90;77.60
4505;DHT22;2265;48.794;9.520;2023-05-28T10:31:23;26.10;74.80
4505;DHT22;2265;48.794;9.520;2023-05-28T10:33:53;26.10;73.00
4505;DHT22;2265;48.794;9.520;2023-05-28T10:36:20;26.20;73.00
4505;DHT22;2265;48.794;9.520;2023-05-28T10:38:58;26.20;74.60
4505;DHT22;2265;48.794;9.520;2023-05-28T10:41:31;26.30;73.80
4505;DHT22;2265;48.794;9.520;2023-05-28T10:44:05;26.30;75.60
4505;DHT22;2265;48.794;9.520;2023-05-28T10:46:36;26.40;73.10
4505;DHT22;2265;48.794;9.520;2023-05-28T10:49:10;26.50;74.40
4505;DHT22;2265;48.794;9.520;2023-05-28T10:51:57;26.50;73.30
4505;DHT22;2265;48.794;9.520;2023-05-28T10:54:40;26.60;72.70
4505;DHT22;2265;48.794;9.520;2023-05-28T10:57:12;26.90;72.50
4505;DHT22;2265;48.794;9.520;2023-05-28T10:59:44;27.00;73.80
4505;DHT22;2265;48.794;9.520;2023-05-28T11:02:11;27.10;72.30
4505;DHT22;2265;48.794;9.520;2023-05-28T11:04:50;27.00;71.80
4505;DHT22;2265;48.794;9.520;2023-05-28T11:07:20;26.90;71.90
4505;DHT22;2265;48.794;9.520;2023-05-28T11:09:48;27.10;71.90
4505;DHT22;2265;48.794;9.520;2023-05-28T11:12:16;27.30;73.10
4505;DHT22;2265;48.794;9.520;2023-05-28T11:14:43;27.30;72.00
4505;DHT22;2265;48.794;9.520;2023-05-28T11:17:11;27.50;73.40
4505;DHT22;2265;48.794;9.520;2023-05-28T11:19:41;27.60;68.50
4505;DHT22;2265;48.794;9.520;2023-05-28T11:22:09;27.60;70.40
4505;DHT22;2265;48.794;9.520;2023-05-28T11:24:54;27.60;71.70
4505;DHT22;2265;48.794;9.520;2023-05-28T11:27:24;27.60;71.80
4505;DHT22;2265;48.794;9.520;2023-05-28T11:29:54;27.70;69.90
4505;DHT22;2265;48.794;9.520;2023-05-28T11:32:22;27.90;74.70
4505;DHT22;2265;48.794;9.520;2023-05-28T11:34:52;28.10;69.70
4505;DHT22;2265;48.794;9.520;2023-05-28T11:37:24;28.20;71.90
4505;DHT22;2265;48.794;9.520;2023-05-28T11:39:52;28.10;71.20
4505;DHT22;2265;48.794;9.520;2023-05-28T11:42:21;28.20;69.90
4505;DHT22;2265;48.794;9.520;2023-05-28T11:44:49;28.10;70.30
4505;DHT22;2265;48.794;9.520;2023-05-28T11:47:17;28.20;70.80
4505;DHT22;2265;48.794;9.520;2023-05-28T11:49:44;28.30;69.10
4505;DHT22;2265;48.794;9.520;2023-05-28T11:52:14;28.40;68.40
4505;DHT22;2265;48.794;9.520;2023-05-28T11:54:43;28.50;64.80
4505;DHT22;2265;48.794;9.520;2023-05-28T11:57:11;28.50;67.30
4505;DHT22;2265;48.794;9.520;2023-05-28T11:59:58;28.60;69.90
4505;DHT22;2265;48.794;9.520;2023-05-28T12:02:27;28.80;66.60
4505;DHT22;2265;48.794;9.520;2023-05-28T12:04:56;29.00;66.90
4505;DHT22;2265;48.794;9.520;2023-05-28T12:07:29;29.00;64.90
4505;DHT22;2265;48.794;9.520;2023-05-28T12:10:06;29.00;67.70
4505;DHT22;2265;48.794;9.520;2023-05-28T12:12:34;29.10;67.30
4505;DHT22;2265;48.794;9.520;2023-05-28T12:15:03;29.00;65.20
4505;DHT22;2265;48.794;9.520;2023-05-28T12:17:36;29.10;67.50
4505;DHT22;2265;48.794;9.520;2023-05-28T12:20:05;29.30;64.00
4505;DHT22;2265;48.794;9.520;2023-05-28T12:22:34;29.40;64.40
4505;DHT22;2265;48.794;9.520;2023-05-28T12:25:02;29.40;65.90
4505;DHT22;2265;48.794;9.520;2023-05-28T12:27:29;29.30;65.10
4505;DHT22;2265;48.794;9.520;2023-05-28T12:29:56;29.40;66.50
4505;DHT22;2265;48.794;9.520;2023-05-28T12:32:24;29.50;66.10
4505;DHT22;2265;48.794;9.520;2023-05-28T12:34:51;29.70;68.00
4505;DHT22;2265;48.794;9.520;2023-05-28T12:37:21;29.80;64.60
4505;DHT22;2265;48.794;9.520;2023-05-28T12:39:50;29.90;64.70
4505;DHT22;2265;48.794;9.520;2023-05-28T12:42:17;29.90;63.00
4505;DHT22;2265;48.794;9.520;2023-05-28T12:44:44;29.90;62.50
4505;DHT22;2265;48.794;9.520;2023-05-28T12:47:11;29.80;61.60
4505;DHT22;2265;48.794;9.520;2023-05-28T12:49:38;29.90;61.40
4505;DHT22;2265;48.794;9.520;2023-05-28T12:52:06;29.90;64.80
4505;DHT22;2265;48.794;9.520;2023-05-28T12:54:33;30.20;63.90
4505;DHT22;2265;48.794;9.520;2023-05-28T12:57:02;30.40;60.50
4505;DHT22;2265;48.794;9.520;2023-05-28T12:59:29;30.50;62.30
4505;DHT22;2265;48.794;9.520;2023-05-28T13:01:56;30.30;61.20
4505;DHT22;2265;48.794;9.520;2023-05-28T13:04:23;30.40;56.90
4505;DHT22;2265;48.794;9.520;2023-05-28T13:06:50;30.50;62.00
4505;DHT22;2265;48.794;9.520;2023-05-28T13:09:17;30.40;62.00
4505;DHT22;2265;48.794;9.520;2023-05-28T13:11:45;30.30;60.70
4505;DHT22;2265;48.794;9.520;2023-05-28T13:14:13;30.50;56.50
4505;DHT22;2265;48.794;9.520;2023-05-28T13:16:40;30.60;59.90
4505;DHT22;2265;48.794;9.520;2023-05-28T13:19:08;30.50;61.50
4505;DHT22;2265;48.794;9.520;2023-05-28T13:21:36;30.40;63.90
4505;DHT22;2265;48.794;9.520;2023-05-28T13:24:03;30.40;63.40
4505;DHT22;2265;48.794;9.520;2023-05-28T13:26:33;30.30;64.30
4505;DHT22;2265;48.794;9.520;2023-05-28T13:29:01;30.40;63.40
4505;DHT22;2265;48.794;9.520;2023-05-28T13:31:31;30.70;62.30
4505;DHT22;2265;48.794;9.520;2023-05-28T13:33:58;30.60;64.00
4505;DHT22;2265;48.794;9.520;2023-05-28T13:36:25;30.70;61.10
4505;DHT22;2265;48.794;9.520;2023-05-28T13:38:52;30.70;64.30
4505;DHT22;2265;48.794;9.520;2023-05-28T13:41:20;30.80;64.20
4505;DHT22;2265;48.794;9.520;2023-05-28T13:43:48;31.10;62.70
4505;DHT22;2265;48.794;9.520;2023-05-28T13:46:18;31.20;62.10
4505;DHT22;2265;48.794;9.520;2023-05-28T13:48:47;31.30;62.40
4505;DHT22;2265;48.794;9.520;2023-05-28T13:51:14;31.20;62.50
4505;DHT22;2265;48.794;9.520;2023-05-28T13:53:41;31.10;65.10
4505;DHT22;2265;48.794;9.520;2023-05-28T13:56:11;31.10;63.30
4505;DHT22;2265;48.794;9.520;2023-05-28T13:58:42;31.00;64.10
4505;DHT22;2265;48.794;9.520;2023-05-28T14:01:09;31.10;63.90
4505;DHT22;2265;48.794;9.520;2023-05-28T14:03:36;31.30;63.40
4505;DHT22;2265;48.794;9.520;2023-05-28T14:06:06;31.50;62.60
4505;DHT22;2265;48.794;9.520;2023-05-28T14:08:33;31.70;62.50
4505;DHT22;2265;48.794;9.520;2023-05-28T14:11:00;31.80;63.50
4505;DHT22;2265;48.794;9.520;2023-05-28T14:13:27;31.60;63.00
4505;DHT22;2265;48.794;9.520;2023-05-28T14:15:57;31.30;64.50
4505;DHT22;2265;48.794;9.520;2023-05-28T14:18:24;31.50;64.00
4505;DHT22;2265;48.794;9.520;2023-05-28T14:20:51;31.60;65.20
4505;DHT22;2265;48.794;9.520;2023-05-28T14:23:20;31.40;63.40
4505;DHT22;2265;48.794;9.520;2023-05-28T14:25:48;31.40;64.50
4505;DHT22;2265;48.794;9.520;2023-05-28T14:28:15;31.70;65.40
4505;DHT22;2265;48.794;9.520;2023-05-28T14:30:42;31.80;64.30
4505;DHT22;2265;48.794;9.520;2023-05-28T14:33:09;31.40;63.60
4505;DHT22;2265;48.794;9.520;2023-05-28T14:35:37;31.10;64.30
4505;DHT22;2265;48.794;9.520;2023-05-28T14:38:04;31.30;64.30
4505;DHT22;2265;48.794;9.520;2023-05-28T14:40:35;31.00;62.90
4505;DHT22;2265;48.794;9.520;2023-05-28T14:43:02;31.00;65.00
4505;DHT22;2265;48.794;9.520;2023-05-28T14:45:29;31.40;64.30
4505;DHT22;2265;48.794;9.520;2023-05-28T14:47:56;31.60;65.90
4505;DHT22;2265;48.794;9.520;2023-05-28T14:50:23;31.50;63.30
4505;DHT22;2265;48.794;9.520;2023-05-28T14:52:50;31.60;62.40
4505;DHT22;2265;48.794;9.520;2023-05-28T14:55:18;31.70;63.70
4505;DHT22;2265;48.794;9.520;2023-05-28T14:57:46;31.60;64.20
4505;DHT22;2265;48.794;9.520;2023-05-28T15:00:15;31.60;63.60
4505;DHT22;2265;48.794;9.520;2023-05-28T15:02:42;31.50;63.50
4505;DHT22;2265;48.794;9.520;2023-05-28T15:05:10;31.30;64.20
4505;DHT22;2265;48.794;9.520;2023-05-28T15:07:37;31.30;63.50
4505;DHT22;2265;48.794;9.520;2023-05-28T15:10:05;31.30;63.90
4505;DHT22;2265;48.794;9.520;2023-05-28T15:12:32;31.10;64.10
4505;DHT22;2265;48.794;9.520;2023-05-28T15:15:01;31.30;63.20
4505;DHT22;2265;48.794;9.520;2023-05-28T15:17:29;31.40;62.40
4505;DHT22;2265;48.794;9.520;2023-05-28T15:19:56;31.50;62.10
4505;DHT22;2265;48.794;9.520;2023-05-28T15:22:23;31.50;62.30
4505;DHT22;2265;48.794;9.520;2023-05-28T15:24:50;31.40;63.80
4505;DHT22;2265;48.794;9.520;2023-05-28T15:27:18;31.30;63.30
4505;DHT22;2265;48.794;9.520;2023-05-28T15:29:45;31.20;61.70
4505;DHT22;2265;48.794;9.520;2023-05-28T15:32:15;31.20;62.80
4505;DHT22;2265;48.794;9.520;2023-05-28T15:34:43;31.10;63.10
4505;DHT22;2265;48.794;9.520;2023-05-28T15:37:17;31.10;63.80
4505;DHT22;2265;48.794;9.520;2023-05-28T15:39:44;30.80;64.10
4505;DHT22;2265;48.794;9.520;2023-05-28T15:42:12;30.50;64.90
4505;DHT22;2265;48.794;9.520;2023-05-28T15:44:39;30.60;63.00
4505;DHT22;2265;48.794;9.520;2023-05-28T15:47:06;30.50;63.40
4505;DHT22;2265;48.794;9.520;2023-05-28T15:49:35;30.50;63.40
4505;DHT22;2265;48.794;9.520;2023-05-28T15:52:02;30.50;63.50
4505;DHT22;2265;48.794;9.520;2023-05-28T15:54:30;30.50;61.70
4505;DHT22;2265;48.794;9.520;2023-05-28T15:56:58;30.40;60.80
4505;DHT22;2265;48.794;9.520;2023-05-28T15:59:25;30.40;61.70
4505;DHT22;2265;48.794;9.520;2023-05-28T16:01:54;30.40;62.40
4505;DHT22;2265;48.794;9.520;2023-05-28T16:04:24;30.30;62.60
4505;DHT22;2265;48.794;9.520;2023-05-28T16:06:57;30.30;62.20
4505;DHT22;2265;48.794;9.520;2023-05-28T16:09:24;30.10;62.90